Time;durP1;ratioP1;P1;durP2;ratioP2;P2;SDS_P1;SDS_P2;PMS_P1;PMS_P2;Temp;Humidity;BMP_temperature;BMP_pressure;BME280_temperature;BME280_humidity;BME280_pressure;Samples;Min_cycle;Max_cycle;Signal;HPM_P1;HPM_P2
2023/12/03 00:00:49;;;;;;;1999.90;999.90;;;;;;;-4.05;100.00;94971.22;5008514;28;20215;-59
2023/12/03 00:03:15;;;;;;;1999.90;999.90;;;;;;;-4.04;100.00;94978.09;5008374;28;20266;-59
2023/12/03 00:05:40;;;;;;;1999.90;999.90;;;;;;;-4.03;100.00;94985.03;5008113;28;20229;-61
2023/12/03 00:08:08;;;;;;;1999.90;999.90;;;;;;;-4.09;100.00;95002.28;5008710;28;20203;-59
2023/12/03 00:10:33;;;;;;;1999.90;999.90;;;;;;;-4.11;100.00;95001.03;5007862;28;20230;-59
2023/12/03 00:12:58;;;;;;;1999.90;999.90;;;;;;;-4.12;100.00;95000.25;5008013;28;20194;-58
2023/12/03 00:15:24;;;;;;;1999.90;999.90;;;;;;;-4.15;100.00;95008.13;5007784;28;20414;-59
2023/12/03 00:17:52;;;;;;;1999.90;999.90;;;;;;;-4.18;100.00;95020.19;5007969;28;20191;-58
2023/12/03 00:20:17;;;;;;;1999.90;999.90;;;;;;;-4.28;100.00;95025.88;5008194;28;20190;-59
2023/12/03 00:22:43;;;;;;;1999.90;999.90;;;;;;;-4.33;100.00;95044.69;5007435;28;20241;-59
2023/12/03 00:25:08;;;;;;;1999.90;999.90;;;;;;;-4.38;100.00;95055.50;5007860;28;20183;-58
2023/12/03 00:27:34;;;;;;;1999.90;999.90;;;;;;;-4.46;100.00;95066.97;5007607;28;20203;-60
2023/12/03 00:29:59;;;;;;;1999.90;999.90;;;;;;;-4.60;100.00;95066.38;5007913;28;20190;-59
2023/12/03 00:32:24;;;;;;;1999.90;999.90;;;;;;;-4.68;100.00;95080.47;5007739;28;20233;-59
2023/12/03 00:34:50;;;;;;;1999.90;999.90;;;;;;;-4.74;100.00;95087.06;5007970;28;20382;-59
2023/12/03 00:37:15;;;;;;;1999.90;999.90;;;;;;;-4.88;100.00;95086.44;5007744;28;20249;-59
2023/12/03 00:39:40;;;;;;;1999.90;999.90;;;;;;;-4.95;100.00;95088.78;5007579;28;20237;-59
2023/12/03 00:42:06;;;;;;;1999.90;999.90;;;;;;;-4.99;100.00;95100.38;5007464;28;20207;-59
2023/12/03 00:44:32;;;;;;;1999.90;999.90;;;;;;;-5.01;100.00;95111.34;5007533;28;20198;-59
2023/12/03 00:46:57;;;;;;;1999.90;999.90;;;;;;;-5.07;100.00;95107.25;5007577;28;20195;-60
2023/12/03 00:49:23;;;;;;;1999.90;999.90;;;;;;;-5.08;100.00;95110.22;5007516;28;20203;-60
2023/12/03 00:51:48;;;;;;;1999.90;999.90;;;;;;;-5.04;100.00;95103.19;5007545;28;20198;-59
2023/12/03 00:54:13;;;;;;;1999.90;999.90;;;;;;;-5.03;100.00;95102.09;5007571;28;20191;-59
2023/12/03 00:56:39;;;;;;;1999.90;999.90;;;;;;;-5.04;100.00;95093.34;5007617;28;20226;-59
2023/12/03 00:59:04;;;;;;;1999.90;999.90;;;;;;;-5.09;100.00;95090.84;5007372;28;20201;-62
2023/12/03 01:01:29;;;;;;;1999.90;999.90;;;;;;;-5.10;100.00;95089.25;5007784;28;20190;-59
2023/12/03 01:03:55;;;;;;;1999.90;999.90;;;;;;;-5.14;100.00;95087.53;5007560;28;20282;-59
2023/12/03 01:06:20;;;;;;;1999.90;999.90;;;;;;;-5.21;100.00;95085.31;5007585;28;20203;-59
2023/12/03 01:08:45;;;;;;;1999.90;999.90;;;;;;;-5.24;100.00;95095.81;5007237;28;20202;-58
2023/12/03 01:11:11;;;;;;;1999.90;999.90;;;;;;;-5.30;100.00;95097.84;5007144;28;20199;-59
2023/12/03 01:13:36;;;;;;;1999.90;999.90;;;;;;;-5.31;100.00;95085.66;5007545;28;20273;-59
2023/12/03 01:16:03;;;;;;;1999.90;999.90;;;;;;;-5.39;100.00;95085.63;5007382;28;20195;-61
2023/12/03 01:18:28;;;;;;;1999.90;999.90;;;;;;;-5.40;100.00;95090.16;5007724;28;20195;-59
2023/12/03 01:20:53;;;;;;;1999.90;999.90;;;;;;;-5.43;100.00;95101.41;5007146;28;20211;-59
2023/12/03 01:23:19;;;;;;;1999.90;999.90;;;;;;;-5.50;100.00;95095.00;5006991;28;20250;-59
2023/12/03 01:25:44;;;;;;;1999.90;999.90;;;;;;;-5.52;100.00;95097.16;5007280;28;20191;-59
2023/12/03 01:28:09;;;;;;;1999.90;999.90;;;;;;;-5.58;100.00;95096.53;5007389;28;20187;-59
2023/12/03 01:30:35;;;;;;;1999.90;999.90;;;;;;;-5.63;100.00;95096.69;5007630;28;20237;-59
2023/12/03 01:33:00;;;;;;;1999.90;999.90;;;;;;;-5.67;100.00;95103.72;5007485;28;20210;-59
2023/12/03 01:35:25;;;;;;;1999.90;999.90;;;;;;;-5.75;100.00;95109.78;5007447;28;20226;-58
2023/12/03 01:37:51;;;;;;;1999.90;999.90;;;;;;;-5.82;100.00;95103.38;5007475;28;20203;-59
2023/12/03 01:40:16;;;;;;;1999.90;999.90;;;;;;;-5.88;100.00;95110.69;5007012;28;20250;-59
2023/12/03 01:42:42;;;;;;;1999.90;999.90;;;;;;;-5.92;100.00;95114.25;5010513;28;20273;-59
2023/12/03 01:45:07;;;;;;;1999.90;999.90;;;;;;;-5.95;100.00;95105.03;5010612;28;20205;-59
2023/12/03 01:47:34;;;;;;;1999.90;999.90;;;;;;;-5.96;100.00;95119.41;5010725;28;20264;-59
2023/12/03 01:50:04;;;;;;;1999.90;999.90;;;;;;;-6.01;100.00;95111.56;5010921;28;20360;-59
2023/12/03 01:52:30;;;;;;;1999.90;999.90;;;;;;;-6.06;100.00;95111.72;5010902;28;20195;-59
2023/12/03 01:54:57;;;;;;;1999.90;999.90;;;;;;;-6.11;100.00;95117.16;5010763;28;20198;-57
2023/12/03 01:57:23;;;;;;;1999.90;999.90;;;;;;;-6.11;100.00;95116.38;5010557;28;20191;-59
2023/12/03 01:59:48;;;;;;;1999.90;999.90;;;;;;;-6.17;100.00;95115.72;5011074;28;20198;-59
2023/12/03 02:02:13;;;;;;;1999.90;999.90;;;;;;;-6.18;100.00;95110.69;5010194;28;20199;-59
2023/12/03 02:04:40;;;;;;;1999.90;999.90;;;;;;;-6.19;100.00;95115.25;5010721;28;20206;-59
2023/12/03 02:07:05;;;;;;;1999.90;999.90;;;;;;;-6.21;100.00;95114.75;5010108;28;20207;-62
2023/12/03 02:09:31;;;;;;;1999.90;999.90;;;;;;;-6.26;100.00;95114.91;5010183;28;20205;-59
2023/12/03 02:11:56;;;;;;;1999.90;999.90;;;;;;;-6.29;100.00;95110.19;5010054;28;20230;-59
2023/12/03 02:14:21;;;;;;;1999.90;999.90;;;;;;;-6.30;100.00;95118.47;5010129;28;20231;-59
2023/12/03 02:16:47;;;;;;;1999.90;999.90;;;;;;;-6.30;100.00;95119.25;5010313;28;20302;-59
2023/12/03 02:19:16;;;;;;;1999.90;999.90;;;;;;;-6.32;100.00;95110.78;5010333;28;20199;-59
2023/12/03 02:21:41;;;;;;;1999.90;999.90;;;;;;;-6.30;100.00;95108.63;5009929;28;20531;-59
2023/12/03 02:24:07;;;;;;;1999.90;999.90;;;;;;;-6.28;100.00;95101.13;5009470;28;20206;-59
2023/12/03 02:26:32;;;;;;;1999.90;999.90;;;;;;;-6.23;100.00;95103.66;5010068;28;20198;-59
2023/12/03 02:28:58;;;;;;;1999.90;999.90;;;;;;;-6.28;100.00;95103.00;5010202;28;20191;-58
2023/12/03 02:31:23;;;;;;;1999.90;999.90;;;;;;;-6.31;100.00;95101.72;5009584;28;20267;-58
2023/12/03 02:34:10;;;;;;;1999.90;999.90;;;;;;;-6.34;100.00;95097.03;5009881;28;20168;-58
2023/12/03 02:36:36;;;;;;;1999.90;999.90;;;;;;;-6.30;100.00;95103.31;5009411;28;20194;-59
2023/12/03 02:39:01;;;;;;;1999.90;999.90;;;;;;;-6.28;100.00;95095.81;5009381;28;20253;-59
2023/12/03 02:41:27;;;;;;;1999.90;999.90;;;;;;;-6.26;100.00;95090.22;5009525;28;20286;-58
2023/12/03 02:43:52;;;;;;;1999.90;999.90;;;;;;;-6.28;100.00;95095.03;5009465;28;20218;-59
2023/12/03 02:46:17;;;;;;;1999.90;999.90;;;;;;;-6.33;100.00;95090.66;5009461;28;20191;-58
2023/12/03 02:48:43;;;;;;;1999.90;999.90;;;;;;;-6.37;100.00;95099.53;5009394;28;20191;-59
2023/12/03 02:51:09;;;;;;;1999.90;999.90;;;;;;;-6.40;100.00;95089.50;5009421;28;20195;-60
2023/12/03 02:53:43;;;;;;;1999.90;999.90;;;;;;;-6.39;100.00;95089.19;5008563;28;20199;-59
2023/12/03 02:56:08;;;;;;;1999.90;999.90;;;;;;;-6.42;100.00;95094.34;5009386;28;20198;-59
2023/12/03 02:58:33;;;;;;;1999.90;999.90;;;;;;;-6.44;100.00;95097.31;5009758;28;20159;-59
2023/12/03 03:00:59;;;;;;;1999.90;999.90;;;;;;;-6.48;100.00;95100.88;5009452;28;20203;-59
2023/12/03 03:03:24;;;;;;;1999.90;999.90;;;;;;;-6.52;100.00;95098.00;5009480;28;20242;-60
2023/12/03 03:05:50;;;;;;;1999.90;999.90;;;;;;;-6.55;100.00;95103.16;5009174;28;20372;-59
2023/12/03 03:08:15;;;;;;;1999.90;999.90;;;;;;;-6.55;100.00;95100.50;5009667;28;20199;-58
2023/12/03 03:10:40;;;;;;;1999.90;999.90;;;;;;;-6.60;100.00;95106.72;5009316;28;20209;-58
2023/12/03 03:13:07;;;;;;;1999.90;999.90;;;;;;;-6.63;100.00;95125.13;5009292;28;20199;-60
2023/12/03 03:15:33;;;;;;;1999.90;999.90;;;;;;;-6.67;100.00;95119.63;5009074;28;20249;-58
2023/12/03 03:17:58;;;;;;;1999.90;999.90;;;;;;;-6.71;100.00;95125.84;5008848;28;20415;-58
2023/12/03 03:20:23;;;;;;;1999.90;999.90;;;;;;;-6.74;100.00;95129.09;5008542;28;20495;-58
2023/12/03 03:22:49;;;;;;;1999.90;999.90;;;;;;;-6.75;100.00;95133.63;5009014;28;20197;-58
2023/12/03 03:25:16;;;;;;;1999.90;999.90;;;;;;;-6.86;100.00;95142.88;5008505;28;20196;-59
2023/12/03 03:27:41;;;;;;;1999.90;999.90;;;;;;;-6.92;100.00;95146.75;5008560;28;20386;-58
2023/12/03 03:30:07;;;;;;;1999.90;999.90;;;;;;;-7.03;100.00;95153.38;5008777;28;20207;-59
2023/12/03 03:32:33;;;;;;;1999.90;999.90;;;;;;;-7.10;100.00;95153.00;5008637;28;20196;-58
2023/12/03 03:34:58;;;;;;;1999.90;999.90;;;;;;;-7.19;100.00;95166.16;5008866;28;20208;-58
2023/12/03 03:37:24;;;;;;;1999.90;999.90;;;;;;;-7.29;100.00;95176.97;5008585;28;20198;-58
2023/12/03 03:39:49;;;;;;;1999.90;999.90;;;;;;;-7.33;100.00;95180.50;5008959;28;20194;-58
2023/12/03 03:42:14;;;;;;;1999.90;999.90;;;;;;;-7.39;100.00;95179.06;5008408;28;20215;-58
2023/12/03 03:44:40;;;;;;;1999.90;999.90;;;;;;;-7.42;100.00;95187.59;5008358;28;20193;-58
2023/12/03 03:47:05;;;;;;;1999.90;999.90;;;;;;;-7.47;100.00;95190.38;5008835;28;20191;-58
2023/12/03 03:49:30;;;;;;;1999.90;999.90;;;;;;;-7.49;100.00;95192.50;5009064;28;20195;-58
2023/12/03 03:51:56;;;;;;;1999.90;999.90;;;;;;;-7.52;100.00;95199.19;5008284;28;20194;-58
2023/12/03 03:54:21;;;;;;;1999.90;999.90;;;;;;;-7.55;100.00;95198.97;5008190;28;20196;-58
2023/12/03 03:56:47;;;;;;;1999.90;999.90;;;;;;;-7.59;100.00;95200.66;5008215;28;20191;-58
2023/12/03 03:59:13;;;;;;;1999.90;999.90;;;;;;;-7.60;100.00;95212.34;5008033;28;20201;-58
2023/12/03 04:01:43;;;;;;;1999.90;999.90;;;;;;;-7.64;100.00;95216.66;5008548;28;20457;-58
2023/12/03 04:04:09;;;;;;;1999.90;999.90;;;;;;;-7.68;100.00;95215.66;5007674;28;20490;-58
2023/12/03 04:06:41;;;;;;;1999.90;999.90;;;;;;;-7.73;100.00;95221.03;5008147;28;20200;-58
2023/12/03 04:09:07;;;;;;;1999.90;999.90;;;;;;;-7.73;100.00;95229.00;5008215;28;20205;-59
2023/12/03 04:11:38;;;;;;;1999.90;999.90;;;;;;;-7.72;100.00;95227.94;5008330;28;20226;-59
2023/12/03 04:14:03;;;;;;;1999.90;999.90;;;;;;;-7.66;100.00;95224.09;5008052;28;20506;-58
2023/12/03 04:16:29;;;;;;;1999.90;999.90;;;;;;;-7.58;100.00;95226.09;5007979;28;20202;-59
2023/12/03 04:18:54;;;;;;;1999.90;999.90;;;;;;;-7.50;100.00;95217.44;5008050;28;20266;-59
2023/12/03 04:21:19;;;;;;;1999.90;999.90;;;;;;;-7.47;100.00;95212.34;5007855;28;20209;-58
2023/12/03 04:23:45;;;;;;;1999.90;999.90;;;;;;;-7.44;100.00;95211.75;5007944;28;20388;-59
2023/12/03 04:26:12;;;;;;;1999.90;999.90;;;;;;;-7.44;100.00;95210.94;5007869;28;20295;-59
2023/12/03 04:28:41;;;;;;;1999.90;999.90;;;;;;;-7.42;100.00;95214.09;5008257;28;20211;-58
2023/12/03 04:31:26;;;;;;;1999.90;999.90;;;;;;;-7.36;100.00;95221.66;5007568;28;20203;-60
2023/12/03 04:33:53;;;;;;;1999.90;999.90;;;;;;;-7.29;100.00;95210.66;5007980;28;20195;-57
2023/12/03 04:36:22;;;;;;;1999.90;999.90;;;;;;;-7.20;100.00;95219.50;5008103;28;20220;-58
2023/12/03 04:38:48;;;;;;;1999.90;999.90;;;;;;;-7.11;100.00;95217.69;5007798;28;20489;-59
2023/12/03 04:41:13;;;;;;;1999.90;999.90;;;;;;;-7.01;100.00;95209.53;5007496;28;20219;-59
2023/12/03 04:43:39;;;;;;;1999.90;999.90;;;;;;;-6.94;100.00;95207.28;5007760;28;20219;-58
2023/12/03 04:46:05;;;;;;;1999.90;999.90;;;;;;;-6.84;100.00;95201.75;5007463;28;20198;-59
2023/12/03 04:48:31;;;;;;;1999.90;999.90;;;;;;;-6.80;100.00;95205.38;5007696;28;20210;-58
2023/12/03 04:50:57;;;;;;;1999.90;999.90;;;;;;;-6.79;100.00;95204.28;5007084;28;20191;-59
2023/12/03 04:53:22;;;;;;;1999.90;999.90;;;;;;;-6.73;100.00;95210.25;5007993;28;20199;-58
2023/12/03 04:55:47;;;;;;;1999.90;999.90;;;;;;;-6.73;100.00;95216.38;5008141;28;20194;-58
2023/12/03 04:58:13;;;;;;;1999.90;999.90;;;;;;;-6.70;100.00;95213.13;5007733;28;20195;-58
2023/12/03 05:00:38;;;;;;;1999.90;999.90;;;;;;;-6.78;100.00;95229.72;5007689;28;20238;-58
2023/12/03 05:03:03;;;;;;;1999.90;999.90;;;;;;;-6.76;100.00;95232.88;5007380;28;20198;-58
2023/12/03 05:05:29;;;;;;;1999.90;999.90;;;;;;;-6.75;100.00;95229.13;5007515;28;20449;-58
2023/12/03 05:07:55;;;;;;;1999.90;999.90;;;;;;;-6.71;100.00;95232.75;5007353;28;20219;-58
2023/12/03 05:10:20;;;;;;;1999.90;999.90;;;;;;;-6.68;100.00;95237.47;5007279;28;20431;-58
2023/12/03 05:12:46;;;;;;;1999.90;999.90;;;;;;;-6.61;100.00;95229.88;5007498;28;20224;-58
2023/12/03 05:15:11;;;;;;;1999.90;999.90;;;;;;;-6.55;100.00;95234.00;5007732;28;20199;-59
2023/12/03 05:17:36;;;;;;;1999.90;999.90;;;;;;;-6.53;100.00;95231.81;5010255;28;20199;-59
2023/12/03 05:20:03;;;;;;;1999.90;999.90;;;;;;;-6.50;100.00;95220.63;5011352;28;20262;-59
2023/12/03 05:22:28;;;;;;;1999.90;999.90;;;;;;;-6.52;100.00;95230.72;5010996;28;20253;-58
2023/12/03 05:24:53;;;;;;;1999.90;999.90;;;;;;;-6.52;100.00;95233.38;5011533;28;20171;-58
2023/12/03 05:27:18;;;;;;;1999.90;999.90;;;;;;;-6.55;100.00;95244.63;5011115;28;20195;-59
2023/12/03 05:29:45;;;;;;;1999.90;999.90;;;;;;;-6.55;100.00;95234.00;5010951;28;20249;-58
2023/12/03 05:32:11;;;;;;;1999.90;999.90;;;;;;;-6.54;100.00;95251.50;5011270;28;20209;-59
2023/12/03 05:34:36;;;;;;;1999.90;999.90;;;;;;;-6.60;100.00;95244.72;5010650;28;20233;-58
2023/12/03 05:37:01;;;;;;;1999.90;999.90;;;;;;;-6.64;100.00;95259.69;5010648;28;20195;-58
2023/12/03 05:39:27;;;;;;;1999.90;999.90;;;;;;;-6.70;100.00;95268.06;5010513;28;20225;-59
2023/12/03 05:41:52;;;;;;;1999.90;999.90;;;;;;;-6.72;100.00;95265.69;5010551;28;20395;-58
2023/12/03 05:44:18;;;;;;;1999.90;999.90;;;;;;;-6.74;100.00;95283.78;5010506;28;20255;-59
2023/12/03 05:46:43;;;;;;;1999.90;999.90;;;;;;;-6.72;100.00;95281.63;5011043;28;20202;-58
2023/12/03 05:49:09;;;;;;;1999.90;999.90;;;;;;;-6.70;100.00;95295.38;5011024;28;20354;-60
2023/12/03 05:51:34;;;;;;;1999.90;999.90;;;;;;;-6.65;100.00;95297.13;5010220;28;20199;-58
2023/12/03 05:54:00;;;;;;;1999.90;999.90;;;;;;;-6.55;100.00;95292.41;5010311;28;20508;-59
2023/12/03 05:56:25;;;;;;;1999.90;999.90;;;;;;;-6.48;100.00;95303.41;5010916;28;20218;-59
2023/12/03 05:58:50;;;;;;;1999.90;999.90;;;;;;;-6.43;100.00;95295.31;5010884;28;20196;-59
2023/12/03 06:01:23;;;;;;;1999.90;999.90;;;;;;;-6.38;100.00;95295.19;5010234;28;20215;-58
2023/12/03 06:03:48;;;;;;;1999.90;999.90;;;;;;;-6.36;100.00;95294.91;5010593;28;20199;-58
2023/12/03 06:06:15;;;;;;;1999.90;999.90;;;;;;;-6.38;100.00;95300.50;5010489;28;20282;-58
2023/12/03 06:08:40;;;;;;;1999.90;999.90;;;;;;;-6.37;100.00;95304.75;5010605;28;20270;-59
2023/12/03 06:11:06;;;;;;;1999.90;999.90;;;;;;;-6.32;100.00;95312.59;5010358;28;20561;-59
2023/12/03 06:13:31;;;;;;;1999.90;999.90;;;;;;;-6.26;100.00;95314.06;5010310;28;20199;-59
2023/12/03 06:15:56;;;;;;;1999.90;999.90;;;;;;;-6.22;100.00;95300.97;5010290;28;20265;-58
2023/12/03 06:18:22;;;;;;;1999.90;999.90;;;;;;;-6.15;100.00;95320.72;5010104;28;20199;-59
2023/12/03 06:20:47;;;;;;;1999.90;999.90;;;;;;;-6.12;100.00;95317.44;5010141;28;20207;-59
2023/12/03 06:23:13;;;;;;;1999.90;999.90;;;;;;;-6.05;100.00;95320.47;5009722;28;20265;-58
2023/12/03 06:25:38;;;;;;;1999.90;999.90;;;;;;;-6.00;100.00;95320.38;5010624;28;20202;-59
2023/12/03 06:28:03;;;;;;;1999.90;999.90;;;;;;;-5.94;100.00;95319.16;5009954;28;20431;-58
2023/12/03 06:30:29;;;;;;;1999.90;999.90;;;;;;;-5.90;100.00;95320.13;5010168;28;20199;-58
2023/12/03 06:32:55;;;;;;;1999.90;999.90;;;;;;;-5.92;100.00;95322.31;5010451;28;20206;-59
2023/12/03 06:35:20;;;;;;;1999.90;999.90;;;;;;;-5.92;100.00;95332.94;5010214;28;20195;-59
2023/12/03 06:37:45;;;;;;;1999.90;999.90;;;;;;;-5.90;100.00;95324.66;5009887;28;20240;-59
2023/12/03 06:40:11;;;;;;;1999.90;999.90;;;;;;;-5.86;100.00;95334.41;5009719;28;20191;-60
2023/12/03 06:42:36;;;;;;;1999.90;999.90;;;;;;;-5.84;100.00;95340.19;5009710;28;20221;-61
2023/12/03 06:45:02;;;;;;;1999.90;999.90;;;;;;;-5.80;100.00;95343.78;5009756;28;20195;-61
2023/12/03 06:47:27;;;;;;;1999.90;999.90;;;;;;;-5.76;100.00;95336.00;5009637;28;20195;-61
2023/12/03 06:49:53;;;;;;;1999.90;999.90;;;;;;;-5.65;100.00;95342.66;5009661;28;20187;-61
2023/12/03 06:52:18;;;;;;;1999.90;999.90;;;;;;;-5.53;100.00;95334.91;5009406;28;20191;-61
2023/12/03 06:54:44;;;;;;;1999.90;999.90;;;;;;;-5.49;100.00;95339.31;5009457;28;20202;-59
2023/12/03 06:57:09;;;;;;;1999.90;999.90;;;;;;;-5.43;100.00;95339.97;5009880;28;20172;-65
2023/12/03 06:59:34;;;;;;;1999.90;999.90;;;;;;;-5.33;100.00;95350.34;5009643;28;20249;-59
2023/12/03 07:02:00;;;;;;;1999.90;999.90;;;;;;;-5.00;100.00;95347.06;5009219;28;20206;-58
2023/12/03 07:04:25;;;;;;;1999.90;999.90;;;;;;;-4.45;100.00;95342.09;5009096;28;20282;-57
2023/12/03 07:06:50;;;;;;;1999.90;999.90;;;;;;;-4.05;100.00;95339.03;5009044;28;20203;-58
2023/12/03 07:09:16;;;;;;;1999.90;999.90;;;;;;;-4.03;100.00;95352.06;5009677;28;20205;-59
2023/12/03 07:11:41;;;;;;;1999.90;999.90;;;;;;;-4.19;100.00;95383.69;5009555;28;20550;-59
2023/12/03 07:14:06;;;;;;;1999.90;999.90;;;;;;;-4.31;100.00;95404.03;5009160;28;20202;-61
2023/12/03 07:16:32;;;;;;;1999.90;999.90;;;;;;;-4.45;100.00;95420.13;5009127;28;20195;-58
2023/12/03 07:18:57;;;;;;;1999.90;999.90;;;;;;;-4.51;100.00;95432.00;5009049;28;20195;-58
2023/12/03 07:21:22;;;;;;;1999.90;999.90;;;;;;;-4.55;100.00;95452.34;5008985;28;20214;-58
2023/12/03 07:23:48;;;;;;;1999.90;999.90;;;;;;;-4.56;100.00;95456.13;5008969;28;20249;-58
2023/12/03 07:26:13;;;;;;;1999.90;999.90;;;;;;;-4.54;100.00;95463.81;5009059;28;20198;-60
2023/12/03 07:28:41;;;;;;;1999.90;999.90;;;;;;;-4.43;100.00;95475.75;5009234;28;20178;-59
2023/12/03 07:31:07;;;;;;;1999.90;999.90;;;;;;;-3.75;100.00;95455.44;5009099;28;20203;-59
2023/12/03 07:33:32;;;;;;;1999.90;999.90;;;;;;;-3.79;100.00;95485.72;5009059;28;20249;-59
2023/12/03 07:35:58;;;;;;;1999.90;999.90;;;;;;;-3.72;100.00;95486.81;5008689;28;20203;-58
2023/12/03 07:38:23;;;;;;;1999.90;999.90;;;;;;;-3.73;100.00;95517.25;5008221;28;20199;-59
2023/12/03 07:40:49;;;;;;;1999.90;999.90;;;;;;;-3.72;100.00;95534.84;5008082;28;20215;-59
2023/12/03 07:43:14;;;;;;;1999.90;999.90;;;;;;;-3.62;100.00;95539.09;5009156;28;20191;-59
2023/12/03 07:45:40;;;;;;;1999.90;999.90;;;;;;;-3.68;100.00;95551.78;5008337;28;20195;-58
2023/12/03 07:48:05;;;;;;;1999.90;999.90;;;;;;;-3.63;100.00;95565.00;5008478;28;20254;-58
2023/12/03 07:50:30;;;;;;;1999.90;999.90;;;;;;;-3.66;100.00;95584.28;5008412;28;20195;-58
2023/12/03 07:52:56;;;;;;;1999.90;999.90;;;;;;;-3.60;100.00;95585.69;5008084;28;20194;-59
2023/12/03 07:55:21;;;;;;;1999.90;999.90;;;;;;;-3.57;100.00;95606.44;5008639;28;20195;-59
2023/12/03 07:57:46;;;;;;;1999.90;999.90;;;;;;;-3.52;100.00;95619.66;5008069;28;20199;-59
2023/12/03 08:00:13;;;;;;;1999.90;999.90;;;;;;;-3.40;100.00;95631.59;5008324;28;20179;-60
2023/12/03 08:02:38;;;;;;;1999.90;999.90;;;;;;;-3.43;100.00;95653.56;5008135;28;20298;-59
2023/12/03 08:05:04;;;;;;;1999.90;999.90;;;;;;;-3.47;100.00;95662.19;5008006;28;20203;-59
2023/12/03 08:07:29;;;;;;;1999.90;999.90;;;;;;;-3.58;100.00;95679.56;5007890;28;20202;-59
2023/12/03 08:09:55;;;;;;;1999.90;999.90;;;;;;;-3.52;100.00;95683.69;5007890;28;20191;-59
2023/12/03 08:12:20;;;;;;;1999.90;999.90;;;;;;;-3.50;100.00;95691.34;5007991;28;20198;-59
2023/12/03 08:14:46;;;;;;;1999.90;999.90;;;;;;;-3.32;100.00;95692.22;5008066;28;20194;-60
2023/12/03 08:17:12;;;;;;;1999.90;999.90;;;;;;;-3.10;100.00;95700.16;5007706;28;20187;-62
2023/12/03 08:19:39;;;;;;;1999.90;999.90;;;;;;;-2.72;100.00;95706.53;5007872;28;20186;-59
2023/12/03 08:22:06;;;;;;;1999.90;999.90;;;;;;;-2.51;100.00;95723.56;5024613;28;20210;-59
2023/12/03 08:24:31;;;;;;;1999.90;999.90;;;;;;;-2.52;100.00;95732.69;5007680;28;20206;-60
2023/12/03 08:26:56;;;;;;;1999.90;999.90;;;;;;;-2.56;100.00;95751.22;5007634;28;20269;-68
2023/12/03 08:29:22;;;;;;;1999.90;999.90;;;;;;;-2.58;100.00;95763.31;5008146;28;20194;-58
2023/12/03 08:31:49;;;;;;;1999.90;999.90;;;;;;;-2.61;100.00;95778.09;5008118;28;20222;-59
2023/12/03 08:34:15;;;;;;;1999.90;999.90;;;;;;;-2.54;100.00;95773.06;5007668;28;20200;-60
2023/12/03 08:36:41;;;;;;;1999.90;999.90;;;;;;;-2.47;100.00;95785.97;5007939;28;20234;-59
2023/12/03 08:39:08;;;;;;;1999.90;999.90;;;;;;;-2.46;100.00;95790.22;5007950;28;20195;-59
2023/12/03 08:41:34;;;;;;;1999.90;999.90;;;;;;;-2.28;100.00;95794.50;5007266;28;20203;-61
2023/12/03 08:44:00;;;;;;;1999.90;999.90;;;;;;;-2.20;100.00;95796.41;5007427;28;20186;-62
2023/12/03 08:46:25;;;;;;;1999.90;999.90;;;;;;;-2.13;100.00;95804.75;5007669;28;20210;-60
2023/12/03 08:48:50;;;;;;;1999.90;999.90;;;;;;;-2.06;100.00;95810.41;5007695;28;20183;-60
2023/12/03 08:51:16;;;;;;;1999.90;999.90;;;;;;;-2.00;100.00;95820.66;5010223;28;20196;-58
2023/12/03 08:53:41;;;;;;;1999.90;999.90;;;;;;;-1.83;100.00;95825.22;5012179;28;20189;-58
2023/12/03 08:56:13;;;;;;;1999.90;999.90;;;;;;;-1.70;100.00;95835.81;5011755;28;20188;-61
2023/12/03 08:58:40;;;;;;;1999.90;999.90;;;;;;;-1.43;100.00;95837.34;5011545;28;20159;-58
2023/12/03 09:01:06;;;;;;;1999.90;999.90;;;;;;;-1.23;100.00;95850.09;5011768;28;20203;-59
2023/12/03 09:03:32;;;;;;;1999.90;999.90;;;;;;;-0.81;100.00;95857.25;5011757;28;20187;-64
2023/12/03 09:05:57;;;;;;;1999.90;999.90;;;;;;;-0.04;100.00;95849.69;5011254;28;20253;-59
2023/12/03 09:08:22;;;;;;;1999.90;999.90;;;;;;;0.65;100.00;95864.22;5011300;28;20196;-59
2023/12/03 09:10:48;;;;;;;1999.90;999.90;;;;;;;0.50;100.00;95875.53;5011351;28;20365;-62
2023/12/03 09:13:14;;;;;;;1999.90;999.90;;;;;;;0.64;100.00;95878.75;5011415;28;20189;-61
2023/12/03 09:15:39;;;;;;;1999.90;999.90;;;;;;;0.74;100.00;95886.44;5011858;28;20189;-60
2023/12/03 09:18:05;;;;;;;1999.90;999.90;;;;;;;0.96;100.00;95888.78;5011005;28;20475;-60
2023/12/03 09:20:30;;;;;;;1999.90;999.90;;;;;;;1.71;100.00;95882.91;5010651;28;20424;-60
2023/12/03 09:22:56;;;;;;;1999.90;999.90;;;;;;;2.11;100.00;95886.53;5011386;28;20254;-58
2023/12/03 09:25:21;;;;;;;1999.90;999.90;;;;;;;1.97;100.00;95886.09;5011659;28;20201;-60
2023/12/03 09:27:47;;;;;;;1999.90;999.90;;;;;;;1.89;100.00;95895.06;5010777;28;20207;-61
2023/12/03 09:30:12;;;;;;;1999.90;999.90;;;;;;;1.98;100.00;95892.25;5011418;28;20187;-60
2023/12/03 09:32:38;;;;;;;1999.90;999.90;;;;;;;1.88;100.00;95896.19;5011442;28;20222;-60
2023/12/03 09:35:04;;;;;;;1999.90;999.90;;;;;;;1.97;100.00;95896.09;5011398;28;20194;-59
2023/12/03 09:37:29;;;;;;;1999.90;999.90;;;;;;;1.72;100.00;95897.97;5010611;28;20198;-59
2023/12/03 09:39:56;;;;;;;1999.90;999.90;;;;;;;1.78;100.00;95899.31;5010809;28;20210;-59
2023/12/03 09:42:25;;;;;;;1999.90;999.90;;;;;;;1.90;100.00;95895.84;5010721;28;20211;-59
2023/12/03 09:45:01;;;;;;;1999.90;999.90;;;;;;;2.06;100.00;95894.06;5010562;28;20198;-60
2023/12/03 09:47:27;;;;;;;1999.90;999.90;;;;;;;1.99;100.00;95897.31;5010634;28;20190;-57
2023/12/03 09:49:55;;;;;;;1999.90;999.90;;;;;;;2.00;100.00;95890.81;5010890;28;20189;-56
2023/12/03 09:52:23;;;;;;;1999.90;999.90;;;;;;;2.21;100.00;95893.38;5010651;28;20226;-60
2023/12/03 09:54:49;;;;;;;1999.90;999.90;;;;;;;2.35;100.00;95897.31;5010342;28;20188;-59
2023/12/03 09:57:15;;;;;;;1999.90;999.90;;;;;;;2.05;100.00;95893.28;5011007;28;20273;-60
2023/12/03 09:59:46;;;;;;;1999.90;999.90;;;;;;;2.27;100.00;95889.34;5010814;28;20206;-58
2023/12/03 10:02:13;;;;;;;1999.90;999.90;;;;;;;2.08;100.00;95883.75;5026397;28;20298;-58
2023/12/03 10:04:39;;;;;;;1999.90;999.90;;;;;;;1.89;100.00;95878.91;5010032;28;20207;-57
2023/12/03 10:07:07;;;;;;;1999.90;999.90;;;;;;;1.97;100.00;95874.53;5010076;28;20203;-60
2023/12/03 10:09:33;;;;;;;1999.90;999.90;;;;;;;1.81;100.00;95877.09;5026354;28;20245;-60
2023/12/03 10:12:04;;;;;;;1999.90;999.90;;;;;;;2.09;100.00;95861.88;5010250;28;20205;-57
2023/12/03 10:14:30;;;;;;;1999.90;999.90;;;;;;;1.62;100.00;95863.41;5010248;28;20199;-58
2023/12/03 10:16:55;;;;;;;1999.90;999.90;;;;;;;1.62;100.00;95868.00;5010479;28;20198;-58
2023/12/03 10:19:25;;;;;;;1999.90;999.90;;;;;;;1.48;100.00;95862.94;5009647;28;20191;-59
2023/12/03 10:21:51;;;;;;;1999.90;999.90;;;;;;;1.27;100.00;95867.59;5009847;28;20219;-56
2023/12/03 10:24:18;;;;;;;1999.90;999.90;;;;;;;1.19;100.00;95868.47;5026743;28;20430;-58
2023/12/03 10:26:55;;;;;;;1999.90;999.90;;;;;;;2.08;100.00;95865.66;5009633;28;20195;-57
2023/12/03 10:29:23;;;;;;;1999.90;999.90;;;;;;;1.06;100.00;95872.22;5010293;28;20278;-58
2023/12/03 10:31:50;;;;;;;1999.90;999.90;;;;;;;0.86;100.00;95861.50;5009434;28;20199;-58
2023/12/03 10:34:24;;;;;;;1999.90;999.90;;;;;;;0.70;100.00;95858.66;5009474;28;20226;-57
2023/12/03 10:36:49;;;;;;;1999.90;999.90;;;;;;;0.57;100.00;95858.91;5010044;28;20214;-59
2023/12/03 10:39:18;;;;;;;1999.90;999.90;;;;;;;0.35;100.00;95851.97;5009735;28;20196;-60
2023/12/03 10:41:49;;;;;;;1999.90;999.90;;;;;;;0.26;100.00;95840.50;5009637;28;20226;-60